Butte, Montana
Current Conditions -  °F | °C
As of 10:53 AM on Thursday 23 Oct 2014 (Local Time) from KBTM Reporting Station
Broken Clouds Broken Clouds  
Wind Chill: 50°   Ceiling: 4600
Heat Index: 50°   Visibility: 10mi
Dew Point: 33°   Wind: 5mph
Humidity: 52%   Direction: 50°NE
Pressure: 30.02"   Gusts: NA
Location:  45.95°N, 112.5°W
Report Text: KBTM 231653Z AUTO 05004KT 10SM BKN046 BKN065 10/01 A3002 RMK AO2 SLP155 T01000006
Loading
Personal Weather Stations






























Interactive Weather Map New forecast layout! Learn more

10-Day Weather Forecast

Advertisements
Track Severe Weather on mobile